Time;durP1;ratioP1;P1;durP2;ratioP2;P2;SDS_P1;SDS_P2;PMS_P1;PMS_P2;Temp;Humidity;BMP_temperature;BMP_pressure;BME280_temperature;BME280_humidity;BME280_pressure;Samples;Min_cycle;Max_cycle;Signal;HPM_P1;HPM_P2
2022/03/18 00:00:51;;;;;;;13.25;7.20;;;-4.00;1.00;;;-3.34;60.87;101903.25;4978843;28;118315;-90
2022/03/18 00:03:27;;;;;;;16.70;7.18;;;-4.00;1.00;;;-3.39;61.27;101902.91;4981006;28;112846;-90
2022/03/18 00:05:56;;;;;;;13.73;6.90;;;-4.00;1.00;;;-3.46;61.10;101900.06;5002694;28;128146;-90
2022/03/18 00:08:25;;;;;;;15.75;7.15;;;-4.10;1.00;;;-3.56;61.69;101906.47;4988001;28;128835;-87
2022/03/18 00:13:40;;;;;;;13.27;7.47;;;-4.10;1.00;;;-3.66;63.07;101906.56;4985901;28;111822;-85
2022/03/18 00:16:11;;;;;;;13.05;7.22;;;-4.10;1.00;;;-3.62;62.99;101907.94;4986308;28;128398;-88
2022/03/18 00:19:33;;;;;;;13.20;6.72;;;-4.20;1.00;;;-3.78;63.22;101906.03;4996247;28;128271;-91
2022/03/18 00:22:03;;;;;;;18.27;7.32;;;-4.20;1.00;;;-3.75;63.19;101907.56;4995766;28;117108;-92
2022/03/18 00:25:12;;;;;;;12.50;6.93;;;-4.20;1.00;;;-3.82;63.00;101904.69;4980773;28;112783;-91
2022/03/18 00:28:00;;;;;;;17.92;8.05;;;-4.20;1.00;;;-3.75;63.51;101903.06;5020274;28;129043;-86
2022/03/18 00:30:33;;;;;;;15.52;7.47;;;-4.30;1.00;;;-3.70;63.22;101908.72;5014517;28;129063;-91
2022/03/18 00:33:44;;;;;;;13.15;7.20;;;-4.40;1.00;;;-3.76;63.24;101912.00;4997267;28;117863;-86
2022/03/18 00:36:35;;;;;;;16.40;7.50;;;-4.50;1.00;;;-3.73;63.51;101906.38;5012468;28;113359;-92
2022/03/18 00:39:10;;;;;;;15.63;8.25;;;-4.50;1.00;;;-3.73;63.21;101917.00;4977365;28;129924;-92
2022/03/18 00:41:56;;;;;;;17.83;8.90;;;-4.50;1.00;;;-3.76;63.86;101914.66;5009823;28;128606;-89
2022/03/18 00:44:39;;;;;;;15.73;7.78;;;-4.60;1.00;;;-3.90;63.95;101907.28;5009904;28;119113;-91
2022/03/18 00:53:12;;;;;;;15.38;7.43;;;-4.60;1.00;;;-4.06;65.40;101922.13;4980638;28;128595;-92
2022/03/18 00:55:45;;;;;;;16.40;7.93;;;-4.60;1.00;;;-4.10;64.74;101912.78;4994807;28;118220;-91
2022/03/18 00:58:22;;;;;;;16.85;8.35;;;-4.60;1.00;;;-4.18;66.19;101918.03;5013521;28;114170;-91
2022/03/18 01:09:29;;;;;;;17.98;9.55;;;-4.50;1.00;;;-4.36;67.14;101932.16;5017973;28;118396;-88
2022/03/18 01:12:03;;;;;;;18.30;9.32;;;-4.70;1.00;;;-4.48;67.73;101928.09;4981877;28;112749;-90
2022/03/18 01:16:13;;;;;;;19.45;9.63;;;-4.70;1.00;;;-4.49;68.19;101931.72;5008811;28;130340;-90
2022/03/18 01:19:18;;;;;;;17.67;9.13;;;-4.70;1.00;;;-4.44;68.15;101932.13;5018445;28;129282;-92
2022/03/18 01:26:02;;;;;;;20.55;9.45;;;-4.80;1.00;;;-4.67;69.96;101931.72;5025441;28;112277;-89
2022/03/18 01:31:35;;;;;;;19.20;9.88;;;-4.80;1.00;;;-4.72;70.06;101926.03;4994144;28;127653;-89
2022/03/18 01:37:28;;;;;;;16.17;8.80;;;-4.90;1.00;;;-4.89;71.02;101925.06;5010968;28;113455;-90
2022/03/18 01:40:20;;;;;;;17.13;8.38;;;-5.00;1.00;;;-4.97;70.68;101931.09;4994648;28;129464;-89
2022/03/18 01:43:47;;;;;;;17.23;9.02;;;-5.00;1.00;;;-4.90;70.34;101936.63;5010310;28;128101;-89
2022/03/18 01:46:28;;;;;;;18.02;7.82;;;-5.20;1.00;;;-4.87;69.97;101923.09;5013105;28;118532;-91
2022/03/18 01:48:57;;;;;;;17.08;8.77;;;-5.30;1.00;;;-4.92;69.72;101930.66;4995599;28;111704;-92
2022/03/18 01:51:26;;;;;;;19.65;8.82;;;-5.40;1.00;;;-4.90;69.73;101936.63;4993446;28;129234;-90
2022/03/18 01:56:40;;;;;;;16.13;8.65;;;-5.40;1.00;;;-4.97;70.00;101932.91;5008574;28;118419;-93
2022/03/18 02:03:24;;;;;;;18.75;9.02;;;-5.50;1.00;;;-5.04;71.01;101932.69;4986307;28;129004;-94
2022/03/18 02:05:53;;;;;;;18.67;9.60;;;-5.40;1.00;;;-5.13;71.55;101939.69;4995826;28;127915;-92
2022/03/18 02:08:22;;;;;;;18.63;8.35;;;-5.30;1.00;;;-5.14;72.48;101942.47;4979079;28;117596;-89
2022/03/18 02:11:17;;;;;;;18.50;8.85;;;-5.40;1.00;;;-5.33;73.22;101943.41;4999738;28;112422;-86
2022/03/18 02:13:51;;;;;;;20.15;8.82;;;-5.40;1.00;;;-5.40;72.89;101947.66;4982444;28;127756;-90
2022/03/18 02:16:26;;;;;;;16.35;9.05;;;-5.50;1.00;;;-5.40;73.33;101950.31;5000309;28;129364;-96
2022/03/18 02:19:07;;;;;;;17.35;9.25;;;-5.50;1.00;;;-5.37;72.71;101936.78;5001455;28;118700;-92
2022/03/18 02:39:52;;;;;;;21.60;8.95;;;-5.80;1.00;;;-5.54;74.74;101960.38;4827421;29;114049;-90
2022/03/18 02:43:02;;;;;;;15.77;8.00;;;-5.70;1.00;;;-5.61;74.35;101977.78;4861047;29;130168;-96
2022/03/18 02:49:10;;;;;;;17.35;8.63;;;-5.70;1.00;;;-5.53;73.22;101972.63;4837087;29;118252;-96
2022/03/18 03:00:00;;;;;;;21.25;9.90;;;-6.10;1.00;;;-5.73;75.51;101981.59;4862849;29;129487;-93
2022/03/18 03:02:44;;;;;;;19.13;8.93;;;-5.90;1.00;;;-5.75;75.30;101983.53;4899767;28;118366;-89
2022/03/18 03:11:12;;;;;;;15.43;8.45;;;-6.00;1.00;;;-5.68;74.72;101987.28;5000824;28;129801;-88
2022/03/18 03:14:10;;;;;;;18.92;9.45;;;-6.10;1.00;;;-5.63;74.24;101985.88;4973996;28;117360;-88
2022/03/18 03:17:08;;;;;;;17.75;9.18;;;-6.20;1.00;;;-5.59;73.57;101986.44;4962269;28;113239;-88
2022/03/18 03:19:58;;;;;;;19.88;9.75;;;-6.40;1.00;;;-5.70;74.24;101983.94;4947711;28;129326;-94
2022/03/18 03:23:05;;;;;;;21.52;9.18;;;-6.20;1.00;;;-5.84;76.34;101993.19;4978650;28;129377;-88
2022/03/18 03:29:41;;;;;;;16.70;8.77;;;-6.10;1.00;;;-5.96;77.17;101992.50;4960227;28;114100;-90
2022/03/18 03:35:53;;;;;;;20.75;9.13;;;-6.30;1.00;;;-6.05;77.04;102003.94;4969144;28;129051;-87
2022/03/18 03:42:26;;;;;;;17.58;9.20;;;-6.20;1.00;;;-6.11;77.43;102009.78;4956515;28;113863;-90
2022/03/18 03:45:36;;;;;;;19.02;9.20;;;-6.30;1.00;;;-6.06;76.91;102011.06;4977352;28;130447;-92
2022/03/18 03:48:38;;;;;;;22.13;9.52;;;-6.50;1.00;;;-6.16;77.40;102011.03;4958457;28;128712;-91
2022/03/18 03:51:40;;;;;;;20.40;9.75;;;-6.50;1.00;;;-6.18;78.11;102005.06;4983343;28;117686;-90
2022/03/18 03:54:46;;;;;;;14.30;8.02;;;-6.50;1.00;;;-6.13;77.25;102003.81;4987009;28;114395;-90
2022/03/18 03:57:20;;;;;;;18.30;8.18;;;-6.60;1.00;;;-6.04;77.54;102002.97;4963913;28;128899;-93
2022/03/18 03:59:48;;;;;;;17.17;8.45;;;-6.60;1.00;;;-6.09;78.65;102007.84;4968195;28;127395;-91
2022/03/18 04:02:17;;;;;;;19.52;9.50;;;-6.60;1.00;;;-6.05;78.50;102006.59;4965518;28;118031;-90
2022/03/18 04:04:47;;;;;;;19.75;10.00;;;-6.60;1.00;;;-6.01;78.11;102008.81;4963765;28;113817;-86
2022/03/18 04:07:17;;;;;;;19.90;10.38;;;-6.70;1.00;;;-6.03;78.44;102000.19;4959329;28;128611;-86
2022/03/18 04:09:49;;;;;;;21.50;9.25;;;-6.70;1.00;;;-6.06;79.32;101999.63;4960799;28;128767;-86
2022/03/18 04:12:25;;;;;;;19.15;10.00;;;-6.60;1.00;;;-6.09;79.97;102008.69;4942937;28;118242;-86
2022/03/18 04:17:51;;;;;;;22.05;8.80;;;-6.60;1.00;;;-6.06;79.63;102016.34;4973992;28;129299;-88
2022/03/18 04:20:27;;;;;;;22.23;9.68;;;-6.70;1.00;;;-6.05;80.15;102014.53;4963315;28;127756;-88
2022/03/18 04:26:01;;;;;;;20.35;9.55;;;-6.70;1.00;;;-6.04;80.11;102019.69;4958206;28;114604;-89
2022/03/18 04:28:31;;;;;;;18.45;9.75;;;-6.60;1.00;;;-5.94;80.33;102014.34;4958679;28;129627;-90
2022/03/18 04:31:23;;;;;;;21.70;9.05;;;-6.60;1.00;;;-5.87;79.31;102020.75;4960752;28;128855;-89
2022/03/18 04:34:01;;;;;;;21.63;11.45;;;-6.60;1.00;;;-5.88;79.68;102024.34;4943256;28;118339;-86
2022/03/18 04:36:36;;;;;;;28.83;10.43;;;-6.60;1.00;;;-5.93;80.06;102025.78;4980711;28;115159;-87
2022/03/18 04:39:08;;;;;;;21.00;11.18;;;-6.40;1.00;;;-5.86;80.11;102027.72;4966089;28;129555;-87
2022/03/18 04:41:43;;;;;;;27.58;11.00;;;-6.30;1.00;;;-5.69;79.87;102025.31;4980897;28;128956;-91
2022/03/18 04:44:12;;;;;;;24.30;10.95;;;-6.30;1.00;;;-5.55;79.74;102029.31;4988375;28;118040;-87
2022/03/18 04:46:53;;;;;;;20.23;11.13;;;-6.30;1.00;;;-5.52;79.18;102029.84;4972348;28;115283;-88
2022/03/18 04:49:21;;;;;;;22.13;11.30;;;-6.20;1.00;;;-5.40;79.10;102033.19;4978088;28;128292;-87
2022/03/18 04:51:52;;;;;;;28.95;12.00;;;-6.10;1.00;;;-5.25;79.30;102037.03;4986858;28;127252;-88
2022/03/18 04:54:24;;;;;;;22.83;10.82;;;-6.10;1.00;;;-5.15;78.46;102036.97;4974703;28;117113;-89
2022/03/18 05:00:27;;;;;;;24.30;11.43;;;-5.90;1.00;;;-4.94;79.13;102033.25;4972306;28;129176;-85
2022/03/18 05:03:21;;;;;;;21.55;10.30;;;-5.70;1.00;;;-4.75;78.33;102048.25;4976706;28;129049;-91
2022/03/18 05:06:10;;;;;;;23.63;10.85;;;-5.60;1.00;;;-4.61;78.76;102036.28;4979301;28;118135;-88
2022/03/18 05:18:24;;;;;;;22.50;10.88;;;-5.00;1.00;;;-3.95;77.00;102052.84;4989429;28;118819;-85
2022/03/18 05:21:21;;;;;;;21.95;11.18;;;-4.90;1.00;;;-3.78;76.39;102052.00;4964051;28;115382;-85
2022/03/18 05:23:52;;;;;;;26.65;11.55;;;-4.70;1.00;;;-3.52;75.53;102045.84;4972911;28;129268;-88
2022/03/18 05:26:25;;;;;;;26.60;11.75;;;-4.60;1.00;;;-3.36;75.42;102061.09;5015980;28;128557;-89
2022/03/18 05:29:01;;;;;;;25.63;11.48;;;-4.50;1.00;;;-3.28;74.55;102051.31;5004464;28;118284;-85
2022/03/18 05:31:37;;;;;;;25.38;11.95;;;-4.30;1.00;;;-3.07;73.99;102055.41;4996167;28;114666;-89
2022/03/18 05:34:15;;;;;;;31.88;13.57;;;-4.20;1.00;;;-2.91;73.19;102055.50;4990055;28;129112;-89
2022/03/18 05:41:02;;;;;;;35.47;16.30;;;-3.80;1.00;;;-2.53;71.65;102071.91;5074382;22;103460;-89
2022/03/18 05:43:39;;;;;;;31.77;17.02;;;-3.60;1.00;;;-2.21;70.85;102067.69;4959016;28;115228;-89
2022/03/18 05:46:10;;;;;;;32.65;17.27;;;-3.40;1.00;;;-1.95;70.02;102068.53;4958170;28;128190;-90
2022/03/18 05:49:07;;;;;;;40.63;18.35;;;-3.30;1.00;;;-1.66;68.20;102070.72;4980002;28;130352;-89
2022/03/18 05:51:37;;;;;;;28.52;16.75;;;-3.10;1.00;;;-1.46;67.09;102069.34;4941082;28;118316;-88
2022/03/18 05:54:16;;;;;;;36.88;16.40;;;-2.90;1.00;;;-1.30;65.83;102070.31;4942781;28;115167;-87
2022/03/18 05:56:56;;;;;;;26.25;14.10;;;-2.70;1.00;;;-1.05;64.74;102064.94;4957845;28;127847;-91
2022/03/18 05:59:39;;;;;;;25.42;11.45;;;-2.50;1.00;;;-0.90;62.39;102073.88;4939946;28;129066;-90
2022/03/18 06:02:10;;;;;;;24.63;12.10;;;-2.30;1.00;;;-0.62;61.35;102071.59;4970393;28;117995;-88
2022/03/18 06:04:42;;;;;;;20.42;12.23;;;-2.20;1.00;;;-0.36;59.85;102075.78;4953630;28;114929;-89
2022/03/18 06:07:12;;;;;;;21.52;11.68;;;-2.00;1.00;;;-0.12;59.28;102072.16;4935884;28;128590;-90
2022/03/18 06:12:30;;;;;;;21.60;11.55;;;-1.70;1.00;;;0.17;56.94;102075.94;4973460;28;118541;-90
2022/03/18 06:15:08;;;;;;;26.35;11.25;;;-1.60;1.00;;;0.35;56.14;102079.13;4939953;28;115729;-90
2022/03/18 06:17:42;;;;;;;20.02;10.60;;;-1.40;1.00;;;0.46;54.89;102082.38;4970579;28;130432;-88
2022/03/18 06:20:18;;;;;;;23.63;11.52;;;-1.30;1.00;;;0.62;55.10;102086.72;4956872;28;128643;-89
2022/03/18 06:22:47;;;;;;;25.42;11.82;;;-1.20;1.00;;;0.81;53.99;102091.56;4953807;28;118126;-89
2022/03/18 06:25:17;;;;;;;23.08;11.68;;;-1.00;1.00;;;1.01;53.46;102091.88;4953993;28;115216;-87
2022/03/18 06:27:55;;;;;;;25.73;12.30;;;-0.90;1.00;;;1.18;52.43;102097.00;4957522;28;128704;-88
2022/03/18 06:30:26;;;;;;;22.25;11.60;;;-0.80;1.00;;;1.33;51.30;102094.34;4955223;28;127917;-88
2022/03/18 06:32:59;;;;;;;23.40;12.38;;;-0.60;1.00;;;1.44;50.56;102102.69;4970783;28;118263;-92
2022/03/18 06:35:28;;;;;;;28.20;11.63;;;-0.50;1.00;;;1.58;49.91;102098.34;4953456;28;115144;-89
2022/03/18 06:37:58;;;;;;;26.90;11.82;;;-0.40;1.00;;;1.72;49.92;102099.31;4969137;28;128392;-90
2022/03/18 06:40:28;;;;;;;24.73;11.35;;;-0.30;1.00;;;1.87;48.22;102101.13;4964881;28;128970;-90
2022/03/18 06:42:58;;;;;;;27.35;12.20;;;-0.10;1.00;;;1.96;47.77;102106.19;4964087;28;118146;-91
2022/03/18 06:45:30;;;;;;;21.95;11.65;;;0.00;1.00;;;2.03;47.25;102103.56;4947468;28;116523;-89
2022/03/18 06:48:03;;;;;;;24.92;11.45;;;0.10;1.00;;;2.23;47.23;102108.28;4914998;28;130024;-91
2022/03/18 06:50:32;;;;;;;22.67;12.00;;;0.20;1.00;;;2.36;46.66;102108.41;4963769;28;127954;-90
2022/03/18 06:53:03;;;;;;;28.92;12.70;;;0.30;1.00;;;2.53;45.98;102100.09;4948984;28;118467;-88
2022/03/18 06:55:33;;;;;;;25.08;12.43;;;0.40;1.00;;;2.68;45.81;102106.19;4936841;28;115581;-90
2022/03/18 06:58:04;;;;;;;26.45;12.52;;;0.60;1.00;;;2.78;45.29;102106.69;4949597;28;129303;-90
2022/03/18 07:00:35;;;;;;;28.00;12.32;;;0.70;1.00;;;2.87;44.32;102105.50;4902025;28;128766;-90
2022/03/18 07:03:04;;;;;;;27.42;13.30;;;0.70;1.00;;;2.72;44.15;102110.13;4950896;28;118427;-89
2022/03/18 07:05:33;;;;;;;31.83;13.32;;;0.70;1.00;;;2.33;44.45;102108.78;4933481;28;115785;-90
2022/03/18 07:08:03;;;;;;;32.63;13.15;;;0.50;1.00;;;2.64;44.19;102105.75;4949144;28;128940;-90
2022/03/18 07:10:35;;;;;;;33.80;13.75;;;0.80;1.00;;;2.91;44.26;102115.84;4949888;28;128921;-92
2022/03/18 07:13:05;;;;;;;24.23;12.57;;;1.00;1.00;;;3.07;44.08;102112.88;4950063;28;118439;-90
2022/03/18 07:15:34;;;;;;;26.52;12.57;;;1.20;1.00;;;3.30;42.74;102111.72;4967051;28;115283;-91
2022/03/18 07:18:04;;;;;;;27.13;12.85;;;1.30;1.00;;;3.43;42.91;102117.19;4949948;28;128376;-89
2022/03/18 07:20:36;;;;;;;29.30;12.32;;;1.40;1.00;;;3.51;41.76;102118.88;4917137;28;128668;-91
2022/03/18 07:23:09;;;;;;;27.73;13.00;;;1.50;1.00;;;3.18;41.16;102116.81;4934347;28;117962;-92
2022/03/18 07:25:41;;;;;;;29.13;13.52;;;1.40;1.00;;;3.07;41.55;102115.53;4950698;28;115523;-91
2022/03/18 07:28:19;;;;;;;28.17;13.75;;;1.40;1.00;;;3.42;41.32;102105.59;4949627;28;128820;-89
2022/03/18 07:30:48;;;;;;;30.23;13.57;;;1.60;1.00;;;3.70;41.34;102106.53;4949445;28;129058;-89
2022/03/18 07:33:18;;;;;;;25.30;12.77;;;1.70;1.00;;;3.92;41.16;102110.72;4934517;28;117767;-90
2022/03/18 07:35:46;;;;;;;26.42;12.98;;;1.90;1.00;;;4.03;40.12;102106.59;4934797;28;113960;-92
2022/03/18 07:38:15;;;;;;;25.67;12.98;;;2.00;1.00;;;4.20;39.34;102114.31;4934004;28;129031;-90
2022/03/18 07:40:44;;;;;;;32.05;14.18;;;2.10;1.00;;;4.35;39.06;102111.41;4952976;28;128789;-91
2022/03/18 07:43:15;;;;;;;25.45;12.82;;;2.20;1.00;;;4.44;38.53;102115.53;4970217;28;117954;-90
2022/03/18 07:45:44;;;;;;;30.48;13.43;;;2.30;1.00;;;4.53;39.51;102119.69;4969099;28;115495;-90
2022/03/18 07:48:13;;;;;;;24.15;11.90;;;2.40;1.00;;;4.52;37.90;102119.91;4937302;28;129163;-89
2022/03/18 07:50:42;;;;;;;20.30;12.40;;;2.40;1.00;;;4.62;38.25;102115.75;4953539;28;128888;-92
2022/03/18 07:53:11;;;;;;;27.58;13.40;;;2.60;1.00;;;4.45;37.23;102119.91;4922185;28;118603;-90
2022/03/18 07:55:41;;;;;;;25.52;13.70;;;2.40;1.00;;;4.72;38.45;102119.91;4969037;28;115360;-89
2022/03/18 07:58:09;;;;;;;34.75;13.25;;;2.70;1.00;;;4.96;38.12;102118.44;4985882;28;129513;-90
2022/03/18 08:00:40;;;;;;;23.90;11.93;;;2.90;1.00;;;5.06;36.49;102120.69;4951942;28;128865;-90
2022/03/18 08:03:09;;;;;;;26.48;12.73;;;2.80;1.00;;;4.75;36.44;102109.53;4921892;28;119405;-89
2022/03/18 08:05:38;;;;;;;26.65;13.18;;;2.90;1.00;;;4.82;36.74;102110.38;4937428;28;115128;-90
2022/03/18 08:08:07;;;;;;;23.75;13.45;;;2.70;1.00;;;4.81;36.29;102107.88;4936934;28;129303;-90
2022/03/18 08:10:36;;;;;;;30.75;12.23;;;2.80;1.00;;;4.86;35.40;102108.91;4968458;28;128753;-88
2022/03/18 08:13:06;;;;;;;22.52;12.73;;;2.80;1.00;;;4.96;35.70;102100.41;4953106;28;117117;-90
2022/03/18 08:15:35;;;;;;;27.40;12.93;;;2.90;1.00;;;4.84;35.61;102099.41;4953223;28;115481;-90
2022/03/18 08:18:05;;;;;;;29.73;13.38;;;2.80;1.00;;;5.06;35.65;102109.91;4952936;28;128879;-89
2022/03/18 08:20:40;;;;;;;22.83;13.48;;;3.00;1.00;;;5.08;36.94;102107.84;4968602;28;128743;-91
2022/03/18 08:23:09;;;;;;;23.08;12.73;;;3.20;1.00;;;5.08;36.09;102113.22;4952339;28;118335;-90
2022/03/18 08:25:39;;;;;;;21.08;12.30;;;3.20;1.00;;;4.57;36.42;102114.75;4937124;28;115069;-92
2022/03/18 08:28:46;;;;;;;18.80;10.48;;;3.20;1.00;;;4.00;36.19;102109.72;4952953;28;130072;-87
2022/03/18 08:34:27;;;;;;;13.45;8.07;;;2.90;1.00;;;4.25;34.81;102120.69;4969839;28;118719;-90
2022/03/18 08:36:56;;;;;;;15.18;9.55;;;3.00;1.00;;;4.64;33.72;102123.63;4955463;28;114468;-90
2022/03/18 08:39:25;;;;;;;16.40;8.77;;;3.10;1.00;;;4.78;33.63;102129.81;4947621;28;129924;-91
2022/03/18 08:41:54;;;;;;;22.75;11.05;;;3.10;1.00;;;4.17;35.19;102128.97;4952434;28;129251;-88
2022/03/18 08:44:23;;;;;;;16.33;9.10;;;3.00;1.00;;;4.23;34.32;102128.16;4952736;28;118264;-89
2022/03/18 08:46:51;;;;;;;18.90;9.07;;;3.00;1.00;;;4.06;35.09;102116.13;4953158;28;114362;-91
2022/03/18 08:49:38;;;;;;;17.90;10.13;;;3.00;1.00;;;4.36;34.09;102121.13;4968849;28;129247;-89
2022/03/18 08:52:08;;;;;;;20.42;10.70;;;3.20;1.00;;;4.84;33.85;102124.44;4968384;28;130023;-88
2022/03/18 08:54:42;;;;;;;17.45;9.52;;;3.30;1.00;;;4.78;34.08;102124.44;4952696;28;118554;-89
2022/03/18 08:57:11;;;;;;;15.93;8.30;;;3.40;1.00;;;5.15;32.90;102124.81;4963968;28;114386;-90
2022/03/18 08:59:40;;;;;;;16.08;8.80;;;3.50;1.00;;;4.84;33.60;102123.59;4978897;28;128145;-90
2022/03/18 09:02:09;;;;;;;16.17;9.30;;;3.40;1.00;;;5.14;33.17;102125.84;4985205;28;129930;-90
2022/03/18 09:04:50;;;;;;;16.55;8.82;;;3.50;1.00;;;4.92;33.37;102123.38;4937067;28;117108;-92
2022/03/18 09:07:19;;;;;;;14.43;8.40;;;3.60;1.00;;;4.76;33.26;102126.53;4955224;28;115195;-90
2022/03/18 09:09:49;;;;;;;13.90;8.35;;;3.60;1.00;;;4.78;33.16;102119.06;4936199;28;129401;-88
2022/03/18 09:12:21;;;;;;;14.05;8.45;;;3.50;1.00;;;4.29;33.58;102127.34;4952293;28;128845;-89
2022/03/18 09:14:50;;;;;;;14.88;8.50;;;3.40;1.00;;;4.81;32.93;102124.03;4951707;28;117825;-90
2022/03/18 09:17:20;;;;;;;14.73;9.55;;;3.50;1.00;;;4.96;32.83;102121.13;4952222;28;114346;-89
2022/03/18 09:19:50;;;;;;;15.95;9.98;;;3.50;1.00;;;4.97;32.78;102128.13;4951630;28;129280;-88
2022/03/18 09:22:21;;;;;;;14.10;9.10;;;3.70;1.00;;;4.72;32.98;102130.66;4935657;28;129511;-88
2022/03/18 09:24:51;;;;;;;12.73;8.60;;;3.60;1.00;;;4.48;32.22;102130.25;4935192;28;118161;-91
2022/03/18 09:27:24;;;;;;;17.83;9.05;;;3.50;1.00;;;5.20;32.03;102130.38;4968696;28;114448;-91
2022/03/18 09:32:55;;;;;;;16.10;10.05;;;4.00;1.00;;;5.05;32.51;102130.63;4972132;28;129055;-90
2022/03/18 09:35:27;;;;;;;18.63;10.50;;;3.80;1.00;;;5.79;32.12;102130.38;4937157;28;118272;-89
2022/03/18 09:37:57;;;;;;;30.50;15.27;;;4.10;1.00;;;6.00;30.60;102130.09;4954566;28;115155;-87
2022/03/18 09:47:31;;;;;;;19.77;10.15;;;4.30;1.00;;;6.60;30.81;102120.75;4965365;28;117688;-90
2022/03/18 09:50:08;;;;;;;15.07;9.23;;;4.70;1.00;;;6.90;30.79;102115.47;4968137;28;115732;-89
2022/03/18 09:55:34;;;;;;;15.80;9.52;;;5.00;1.00;;;6.68;27.88;102123.16;4952183;28;132328;-90
2022/03/18 09:58:09;;;;;;;16.17;9.10;;;4.70;1.00;;;6.59;28.81;102119.91;4946267;28;117677;-88
2022/03/18 10:00:58;;;;;;;19.30;9.98;;;4.50;1.00;;;6.36;28.48;102116.97;4959042;28;114184;-90
2022/03/18 10:03:45;;;;;;;21.35;8.75;;;4.60;1.00;;;6.23;29.19;102109.81;4962684;28;128934;-90
2022/03/18 10:06:29;;;;;;;20.17;11.00;;;4.40;1.00;;;6.40;29.29;102110.91;4980331;28;129144;-88
2022/03/18 10:10:02;;;;;;;19.90;10.18;;;4.40;1.00;;;6.39;28.81;102111.13;4981336;28;118917;-91
2022/03/18 10:12:50;;;;;;;21.50;10.55;;;4.50;1.00;;;6.74;28.44;102121.44;4980664;28;115097;-89
2022/03/18 10:15:26;;;;;;;19.33;10.55;;;4.80;1.00;;;7.01;28.83;102105.81;4973282;28;128118;-91
2022/03/18 10:17:57;;;;;;;16.30;9.68;;;5.10;1.00;;;7.12;28.01;102118.59;4953092;28;128867;-88
2022/03/18 10:20:32;;;;;;;15.30;10.00;;;5.10;1.00;;;7.26;28.23;102113.03;4953598;28;117665;-90
2022/03/18 10:23:18;;;;;;;15.80;9.85;;;5.30;1.00;;;7.32;28.23;102112.13;4938525;28;114646;-91
2022/03/18 10:25:53;;;;;;;17.67;10.30;;;5.40;1.00;;;7.30;27.30;102103.44;4973706;28;129069;-88
2022/03/18 10:28:44;;;;;;;13.20;9.50;;;5.30;1.00;;;7.22;26.89;102106.44;4968161;28;128687;-88
2022/03/18 10:31:16;;;;;;;15.45;9.10;;;5.30;1.00;;;7.25;26.99;102106.00;4937251;28;117783;-88
2022/03/18 10:39:30;;;;;;;22.83;10.77;;;4.80;1.00;;;6.57;28.21;102110.38;4953143;28;129404;-91
2022/03/18 10:42:04;;;;;;;18.15;9.82;;;4.80;1.00;;;6.66;27.79;102103.66;4950915;28;118760;-91
2022/03/18 10:44:49;;;;;;;16.27;9.82;;;4.80;1.00;;;6.28;27.82;102101.91;4920454;28;113836;-91
2022/03/18 10:47:33;;;;;;;18.73;10.70;;;4.80;1.00;;;6.91;27.63;102094.72;4935706;28;128540;-88
2022/03/18 10:50:24;;;;;;;17.05;9.55;;;5.10;1.00;;;7.35;28.18;102090.06;4935663;28;127943;-88
2022/03/18 10:53:06;;;;;;;19.58;9.10;;;5.40;1.00;;;7.65;27.54;102089.25;4936424;28;118239;-91
2022/03/18 10:55:38;;;;;;;20.35;11.05;;;5.70;1.00;;;7.31;25.20;102095.09;4934850;28;114287;-89
2022/03/18 10:58:15;;;;;;;15.05;9.30;;;5.30;1.00;;;7.60;25.67;102098.06;4918528;28;129398;-88
2022/03/18 11:00:47;;;;;;;;;;;5.60;1.00;;;7.69;25.93;102096.69;4935338;28;129332;-90
2022/03/18 11:03:21;;;;;;;13.38;8.18;;;5.80;1.00;;;7.87;24.90;102089.63;4935108;28;118999;-91
2022/03/18 11:05:51;;;;;;;19.80;9.63;;;5.70;1.00;;;7.80;25.21;102086.16;4919129;28;114817;-89
2022/03/18 11:08:23;;;;;;;14.85;8.90;;;5.60;1.00;;;7.81;25.26;102093.22;4934309;28;129223;-91
2022/03/18 11:11:15;;;;;;;19.48;10.63;;;5.60;1.00;;;7.92;25.24;102093.25;4934096;28;129435;-91
2022/03/18 11:14:03;;;;;;;22.45;10.48;;;5.80;1.00;;;7.84;25.80;102085.47;4949688;28;118625;-91
2022/03/18 11:16:36;;;;;;;17.53;9.30;;;5.80;1.00;;;7.56;25.04;102086.88;4967185;28;115093;-91
2022/03/18 11:19:20;;;;;;;13.65;8.40;;;5.60;1.00;;;7.24;24.92;102082.72;4934621;28;129158;-91
2022/03/18 11:21:52;;;;;;;14.48;8.75;;;5.30;1.00;;;7.72;25.00;102076.50;4950064;28;128690;-91
2022/03/18 11:24:28;;;;;;;17.63;9.20;;;5.50;1.00;;;7.67;23.79;102081.78;4949202;28;118744;-92
2022/03/18 11:27:03;;;;;;;16.17;9.13;;;5.60;1.00;;;7.60;24.16;102070.22;4950401;28;114519;-91
2022/03/18 11:29:35;;;;;;;14.13;8.33;;;5.40;1.00;;;7.38;24.33;102068.00;4933441;28;129701;-91
2022/03/18 11:32:26;;;;;;;12.73;8.40;;;5.30;1.00;;;7.33;25.14;102070.56;4933682;28;128969;-92
2022/03/18 11:35:01;;;;;;;18.52;9.38;;;5.50;1.00;;;6.98;26.05;102063.91;4934411;28;118586;-91
2022/03/18 11:37:33;;;;;;;18.02;9.68;;;5.40;1.00;;;7.51;25.47;102051.63;4916725;28;113725;-91
2022/03/18 11:40:33;;;;;;;27.75;10.90;;;5.70;1.00;;;7.67;26.10;102055.56;4933201;28;130215;-93
2022/03/18 11:43:40;;;;;;;20.15;11.95;;;5.90;1.00;;;8.02;25.15;102051.31;4986386;28;129311;-91
2022/03/18 11:46:28;;;;;;;25.40;11.43;;;6.10;1.00;;;7.48;25.33;102057.47;4969272;28;117647;-91
2022/03/18 11:49:05;;;;;;;21.45;11.07;;;6.00;1.00;;;7.97;25.18;102059.31;4969565;28;114265;-90
2022/03/18 11:51:41;;;;;;;17.95;10.27;;;6.00;1.00;;;7.89;25.24;102058.56;4957242;28;129032;-90
2022/03/18 11:54:16;;;;;;;18.63;9.85;;;5.90;1.00;;;7.94;25.07;102049.75;4953531;28;129170;-91
2022/03/18 11:57:30;;;;;;;15.27;8.90;;;5.70;1.00;;;7.44;24.96;102050.88;4953236;28;117876;-92
2022/03/18 12:00:00;;;;;;;20.17;9.95;;;5.70;1.00;;;8.01;24.88;102038.84;4969753;28;114221;-91
2022/03/18 12:02:46;;;;;;;16.20;9.93;;;5.90;1.00;;;7.34;25.03;102045.22;4953453;28;128997;-92
2022/03/18 12:05:22;;;;;;;19.52;11.90;;;5.80;1.00;;;7.62;25.87;102041.06;4969650;28;129269;-90
2022/03/18 12:07:56;;;;;;;15.23;9.27;;;5.80;1.00;;;7.86;26.95;102031.19;4938488;28;118438;-89
2022/03/18 12:10:45;;;;;;;16.30;10.18;;;6.00;1.00;;;7.96;25.84;102030.59;4937767;28;114430;-91
2022/03/18 12:13:15;;;;;;;15.07;9.15;;;6.20;1.00;;;7.89;24.41;102020.72;4953784;28;128746;-90
2022/03/18 12:15:45;;;;;;;16.77;10.10;;;5.90;1.00;;;8.07;24.84;102027.09;4969292;28;129239;-89
2022/03/18 12:18:30;;;;;;;18.38;9.88;;;6.10;1.00;;;8.05;24.33;102034.63;4937452;28;118479;-90
2022/03/18 12:21:06;;;;;;;17.92;9.38;;;6.30;1.00;;;8.27;24.17;102018.66;4970047;28;113660;-90
2022/03/18 12:23:35;;;;;;;28.85;9.45;;;6.30;1.00;;;8.05;23.71;102013.78;4969696;28;130211;-90
2022/03/18 12:26:06;;;;;;;17.42;9.52;;;5.90;1.00;;;8.14;24.48;102011.59;4953517;28;128098;-90
2022/03/18 12:28:46;;;;;;;17.02;9.10;;;6.00;1.00;;;8.10;23.65;102013.09;4954099;28;117655;-89
2022/03/18 12:31:16;;;;;;;14.90;9.30;;;6.00;1.00;;;7.91;23.78;102013.19;4936875;28;113912;-88
2022/03/18 12:33:47;;;;;;;15.15;9.02;;;6.00;1.00;;;8.13;24.03;102001.81;4937076;28;129885;-89
2022/03/18 12:36:36;;;;;;;16.67;10.00;;;6.10;1.00;;;8.18;24.39;102001.13;4936545;28;127924;-90
2022/03/18 12:39:11;;;;;;;18.88;10.95;;;6.30;1.00;;;8.04;24.87;102006.75;4951627;28;118130;-89
2022/03/18 12:41:42;;;;;;;17.25;10.15;;;6.20;1.00;;;8.48;25.68;101994.78;4952491;28;114892;-90
2022/03/18 12:44:14;;;;;;;24.90;11.35;;;6.50;1.00;;;8.52;24.72;101996.78;4935577;28;129311;-89
2022/03/18 12:46:53;;;;;;;18.17;10.60;;;6.40;1.00;;;7.86;25.15;101983.31;4952500;28;128241;-91
2022/03/18 12:49:32;;;;;;;15.70;9.93;;;6.30;1.00;;;7.91;24.65;101986.16;4951928;28;118603;-91
2022/03/18 12:52:01;;;;;;;20.90;11.32;;;6.30;1.00;;;8.00;24.87;101988.53;4952729;28;113421;-90
2022/03/18 12:55:10;;;;;;;16.42;9.52;;;6.30;1.00;;;8.01;24.22;101979.34;4950878;28;130271;-89
2022/03/18 12:57:44;;;;;;;20.27;9.43;;;6.40;1.00;;;8.33;24.14;101976.31;4951776;28;129023;-89
2022/03/18 13:00:17;;;;;;;13.95;9.90;;;6.40;1.00;;;8.37;24.15;101977.50;4968226;28;117864;-90
2022/03/18 13:02:48;;;;;;;17.63;10.82;;;6.50;1.00;;;8.30;25.29;101976.78;4985390;28;114714;-91